< < Back
Terminal Aerodrome Forecast


Current Version              Previous Versions:   1  2  3  4  5  6  7  8  9  

Terminal Aerodrome Forecast

524
FTUS44 KBMX 201122
TAFANB
TAF
KANB 201122Z 2012/2112 22006KT P6SM SCT040
      TEMPO 2014/2017 28012KT BKN015
     FM201800 26015G25KT P6SM SCT050
     FM210000 30010KT P6SM SKC
     FM210300 28002KT P6SM SKC=

Latest METAR

137
SAUS70 KWBC 210100 RRQ
MTRANB
METAR KANB 210053Z AUTO 27007KT 10SM CLR 18/07 A2984 RMK AO2 SLP101
T01780072


USA.gov is the U.S. government's official web portal to all federal, state and local government web resources and services.